Time;durP1;ratioP1;P1;durP2;ratioP2;P2;SDS_P1;SDS_P2;PMS_P1;PMS_P2;Temp;Humidity;BMP_temperature;BMP_pressure;BME280_temperature;BME280_humidity;BME280_pressure;Samples;Min_cycle;Max_cycle;Signal;HPM_P1;HPM_P2
2022/04/29 00:00:25;;;;;;;13.13;5.67;;;;;;;10.17;84.75;101288.31;125167;1099;101942;-77
2022/04/29 00:03:05;;;;;;;10.03;5.43;;;;;;;10.16;85.10;101282.17;126521;1098;102814;-77
2022/04/29 00:05:35;;;;;;;10.63;5.40;;;;;;;10.16;84.92;101273.38;126451;1099;104076;-76
2022/04/29 00:08:08;;;;;;;10.13;5.30;;;;;;;10.15;85.12;101282.09;126196;1098;102038;-77
2022/04/29 00:10:38;;;;;;;10.57;5.67;;;;;;;10.16;85.35;101281.25;125306;1099;104211;-77
2022/04/29 00:13:08;;;;;;;9.23;5.13;;;;;;;10.15;85.57;101287.34;125617;1099;104166;-77
2022/04/29 00:15:37;;;;;;;11.33;5.23;;;;;;;10.16;85.26;101296.98;126559;1099;102272;-76
2022/04/29 00:18:08;;;;;;;11.53;5.40;;;;;;;10.18;85.07;101295.36;125655;1099;104300;-77
2022/04/29 00:20:38;;;;;;;9.70;5.10;;;;;;;10.20;85.13;101293.70;126029;1099;104271;-77
2022/04/29 00:23:08;;;;;;;10.77;5.53;;;;;;;10.19;85.30;101291.89;125657;1099;104220;-77
2022/04/29 00:25:38;;;;;;;10.83;5.07;;;;;;;10.19;85.33;101291.89;125137;1099;103575;-77
2022/04/29 00:28:10;;;;;;;9.27;5.07;;;;;;;10.18;85.38;101284.87;126447;1099;101947;-76
2022/04/29 00:30:42;;;;;;;11.80;5.25;;;;;;;10.20;85.01;101278.86;125115;1099;104156;-76
2022/04/29 00:33:12;;;;;;;11.27;5.00;;;;;;;10.20;85.29;101277.97;126381;1099;102221;-77
2022/04/29 00:35:43;;;;;;;9.73;5.07;;;;;;;10.23;85.45;101278.13;124991;1099;104214;-77
2022/04/29 00:38:15;;;;;;;10.77;4.97;;;;;;;10.27;85.54;101277.46;125141;1099;102148;-77
2022/04/29 00:40:47;;;;;;;7.47;4.70;;;;;;;10.33;85.58;101280.42;126511;1098;102778;-76
2022/04/29 00:43:17;;;;;;;8.23;5.33;;;;;;;10.36;85.27;101279.66;125293;1099;104144;-76
2022/04/29 00:45:48;;;;;;;12.25;5.35;;;;;;;10.41;85.99;101288.67;125549;1099;102877;-76
2022/04/29 00:48:19;;;;;;;11.50;5.53;;;;;;;10.45;85.12;101285.34;125116;1099;102963;-77
2022/04/29 00:50:50;;;;;;;12.30;4.93;;;;;;;10.49;85.60;101289.05;125176;1099;104156;-77
2022/04/29 00:53:22;;;;;;;10.10;5.20;;;;;;;10.52;85.73;101291.82;125695;1099;104185;-77
2022/04/29 00:55:55;;;;;;;9.90;5.00;;;;;;;10.54;85.49;101285.80;125645;1096;104156;-77
2022/04/29 00:58:32;;;;;;;8.08;4.70;;;;;;;10.50;85.38;101273.38;125752;1099;104291;-76
2022/04/29 01:01:05;;;;;;;15.43;5.37;;;;;;;10.48;85.74;101274.11;125679;1099;104185;-77
2022/04/29 01:03:38;;;;;;;10.90;5.43;;;;;;;10.45;85.40;101273.97;126539;1099;104254;-75
2022/04/29 01:06:08;;;;;;;11.67;5.27;;;;;;;10.44;85.98;101265.20;125069;1099;102874;-75
2022/04/29 01:08:38;;;;;;;11.40;5.50;;;;;;;10.44;86.32;101254.70;124462;1099;104230;-76
2022/04/29 01:11:08;;;;;;;11.37;5.00;;;;;;;10.40;86.97;101264.13;124997;1099;104115;-75
2022/04/29 01:13:38;;;;;;;9.97;5.30;;;;;;;10.35;87.35;101255.16;124675;1099;101962;-75
2022/04/29 01:16:09;;;;;;;9.03;4.80;;;;;;;10.29;86.89;101267.94;125063;1099;102120;-77
2022/04/29 01:18:38;;;;;;;11.60;4.90;;;;;;;10.23;86.29;101258.03;125267;1099;102462;-76
2022/04/29 01:21:10;;;;;;;8.77;4.90;;;;;;;10.18;88.67;101256.91;125115;1099;102916;-76
2022/04/29 01:23:41;;;;;;;14.10;5.40;;;;;;;10.13;88.37;101253.17;125153;1099;104128;-76
2022/04/29 01:26:14;;;;;;;11.80;5.17;;;;;;;10.11;88.25;101246.93;125827;1099;101791;-77
2022/04/29 01:28:46;;;;;;;11.07;5.00;;;;;;;10.10;89.11;101245.16;125431;1099;102257;-76
2022/04/29 01:31:16;;;;;;;9.23;5.13;;;;;;;10.10;87.46;101242.53;124587;1099;104611;-76
2022/04/29 01:33:48;;;;;;;9.60;5.10;;;;;;;10.10;87.10;101238.98;125081;1099;104147;-77
2022/04/29 01:36:19;;;;;;;12.40;5.20;;;;;;;10.07;87.34;101242.38;124990;1099;104153;-76
2022/04/29 01:38:49;;;;;;;11.40;6.10;;;;;;;10.06;87.31;101233.59;125253;1099;102759;-76
2022/04/29 01:41:22;;;;;;;11.00;4.83;;;;;;;10.07;87.28;101240.64;124947;1099;102530;-77
2022/04/29 01:43:52;;;;;;;11.57;5.23;;;;;;;10.09;87.38;101243.34;125594;1099;104363;-77
2022/04/29 01:46:22;;;;;;;9.03;4.50;;;;;;;10.05;87.61;101231.81;125243;1099;104596;-77
2022/04/29 01:49:17;;;;;;;8.10;4.83;;;;;;;10.07;87.18;101245.89;125522;1098;104160;-77
2022/04/29 01:51:59;;;;;;;8.53;4.83;;;;;;;10.12;86.98;101250.47;124870;1099;102112;-77
2022/04/29 01:54:29;;;;;;;8.53;4.77;;;;;;;10.16;87.15;101261.19;126080;1099;104227;-77
2022/04/29 01:56:59;;;;;;;8.90;4.70;;;;;;;10.19;86.98;101263.05;125885;1098;104561;-77
2022/04/29 01:59:32;;;;;;;9.17;4.80;;;;;;;10.19;87.37;101253.48;126105;1099;104242;-76
2022/04/29 02:02:12;;;;;;;11.53;5.30;;;;;;;10.19;86.63;101250.86;125394;1099;102379;-76
2022/04/29 02:04:42;;;;;;;9.07;5.00;;;;;;;10.17;87.05;101255.10;125489;1099;104236;-77
2022/04/29 02:07:12;;;;;;;8.50;4.50;;;;;;;10.12;87.09;101247.85;125305;1099;102906;-77
2022/04/29 02:09:44;;;;;;;7.75;4.72;;;;;;;10.08;87.42;101250.33;125373;1099;102111;-76
2022/04/29 02:12:15;;;;;;;7.90;4.60;;;;;;;10.07;87.58;101248.52;124927;1099;102026;-77
2022/04/29 02:15:00;;;;;;;10.03;5.00;;;;;;;10.12;87.15;101248.73;126925;1099;101824;-77
2022/04/29 02:17:38;;;;;;;8.83;4.40;;;;;;;10.13;86.78;101240.06;125888;1099;104264;-76
2022/04/29 02:20:10;;;;;;;10.53;4.80;;;;;;;10.08;88.39;101239.83;125083;1098;104219;-77
2022/04/29 02:22:41;;;;;;;8.57;4.80;;;;;;;10.05;87.46;101226.57;124885;1098;104332;-78
2022/04/29 02:25:10;;;;;;;9.00;4.80;;;;;;;10.03;87.35;101241.30;125185;1099;104322;-77
2022/04/29 02:27:41;;;;;;;9.20;4.97;;;;;;;10.05;87.52;101236.14;125426;1099;104232;-78
2022/04/29 02:30:13;;;;;;;8.37;4.80;;;;;;;10.05;87.44;101242.30;124995;1099;102840;-78
2022/04/29 02:32:43;;;;;;;9.43;5.20;;;;;;;10.06;87.41;101245.81;125850;1099;104153;-77
2022/04/29 02:35:16;;;;;;;10.55;5.25;;;;;;;10.05;87.74;101230.89;124945;1099;103077;-76
2022/04/29 02:37:48;;;;;;;8.50;4.70;;;;;;;10.02;87.53;101238.61;125562;1099;104399;-77
2022/04/29 02:40:22;;;;;;;9.90;5.27;;;;;;;10.00;87.80;101235.94;125584;1099;102898;-78
2022/04/29 02:42:52;;;;;;;9.15;4.67;;;;;;;10.01;87.18;101234.20;125447;1099;102196;-77
2022/04/29 02:45:30;;;;;;;9.20;4.77;;;;;;;10.02;87.58;101241.23;125060;1099;104281;-77
2022/04/29 02:48:01;;;;;;;9.20;5.10;;;;;;;9.98;88.30;101245.43;125017;1099;102767;-77
2022/04/29 02:50:35;;;;;;;9.98;5.12;;;;;;;9.98;87.83;101257.66;127174;1098;101716;-76
2022/04/29 02:53:09;;;;;;;10.27;5.17;;;;;;;10.00;87.18;101264.78;126183;1099;104214;-77
2022/04/29 02:55:44;;;;;;;12.40;5.60;;;;;;;9.99;87.62;101259.46;125635;1102;103111;-77
2022/04/29 02:58:37;;;;;;;11.97;5.80;;;;;;;9.99;87.14;101267.33;127328;1098;101739;-77
2022/04/29 03:01:08;;;;;;;8.53;5.10;;;;;;;10.04;87.51;101266.72;125345;1099;102111;-77
2022/04/29 03:03:38;;;;;;;10.47;5.20;;;;;;;10.08;87.58;101268.68;126001;1098;102203;-77
2022/04/29 03:06:10;;;;;;;13.57;5.73;;;;;;;10.13;87.66;101270.61;125287;1099;102845;-77
2022/04/29 03:08:41;;;;;;;9.63;5.03;;;;;;;10.14;87.58;101270.69;125095;1099;104198;-78
2022/04/29 03:11:13;;;;;;;8.80;5.00;;;;;;;10.11;87.56;101278.40;125089;1098;103236;-77
2022/04/29 03:13:44;;;;;;;9.87;5.23;;;;;;;10.09;87.56;101272.19;124993;1099;104258;-78
2022/04/29 03:16:17;;;;;;;11.03;5.23;;;;;;;10.04;88.73;101279.83;125111;1098;104230;-78
2022/04/29 03:18:48;;;;;;;10.40;5.00;;;;;;;10.05;88.15;101278.09;124476;1099;104165;-78
2022/04/29 03:21:20;;;;;;;12.90;5.33;;;;;;;10.04;88.12;101281.56;125256;1099;104179;-78
2022/04/29 03:23:51;;;;;;;10.77;5.23;;;;;;;10.03;87.85;101291.13;124883;1099;101814;-78
2022/04/29 03:26:21;;;;;;;13.00;5.07;;;;;;;10.06;87.48;101286.03;125021;1099;104278;-77
2022/04/29 03:28:51;;;;;;;10.27;5.40;;;;;;;10.05;87.49;101281.64;125027;1099;102926;-77
2022/04/29 03:31:21;;;;;;;11.50;5.50;;;;;;;10.05;88.23;101283.33;125201;1099;101818;-77
2022/04/29 03:34:18;;;;;;;11.80;5.50;;;;;;;10.01;89.10;101276.16;124704;1099;104192;-77
2022/04/29 03:36:50;;;;;;;10.15;5.65;;;;;;;9.99;88.94;101285.68;124783;1099;104262;-77
2022/04/29 03:39:20;;;;;;;11.97;5.83;;;;;;;9.98;88.44;101287.38;124988;1099;104251;-78
2022/04/29 03:41:51;;;;;;;13.37;6.00;;;;;;;10.02;88.22;101285.80;124928;1099;104245;-78
2022/04/29 03:44:21;;;;;;;11.63;6.10;;;;;;;10.06;87.95;101283.41;124983;1099;104636;-77
2022/04/29 03:46:52;;;;;;;10.27;5.53;;;;;;;10.09;88.63;101287.92;124723;1099;104265;-78
2022/04/29 03:49:41;;;;;;;11.77;5.70;;;;;;;10.12;88.35;101285.45;125063;1099;104169;-77
2022/04/29 03:52:32;;;;;;;10.53;5.90;;;;;;;10.17;87.90;101291.82;126741;1098;101975;-78
2022/04/29 03:55:03;;;;;;;12.07;5.63;;;;;;;10.22;88.16;101292.05;124921;1099;102361;-78
2022/04/29 03:57:35;;;;;;;11.90;5.50;;;;;;;10.22;88.18;101292.97;124788;1099;102659;-78
2022/04/29 04:00:07;;;;;;;11.83;6.20;;;;;;;10.20;87.67;101293.70;124833;1099;104163;-78
2022/04/29 04:02:47;;;;;;;10.43;5.60;;;;;;;10.21;87.87;101291.16;124632;1099;104191;-78
2022/04/29 04:05:19;;;;;;;11.93;6.00;;;;;;;10.21;87.97;101291.16;124419;1099;102784;-78
2022/04/29 04:07:51;;;;;;;11.00;5.83;;;;;;;10.21;88.33;101285.03;124807;1099;104237;-77
2022/04/29 04:10:41;;;;;;;13.27;6.23;;;;;;;10.17;89.23;101283.06;124800;1099;104238;-77
2022/04/29 04:13:14;;;;;;;9.13;5.13;;;;;;;10.12;89.79;101285.45;125642;1099;102755;-77
2022/04/29 04:16:23;;;;;;;12.20;5.70;;;;;;;10.10;88.94;101288.81;124766;1099;104245;-78
2022/04/29 04:18:58;;;;;;;9.53;5.40;;;;;;;10.13;88.71;101287.27;125106;1099;104191;-77
2022/04/29 04:21:28;;;;;;;12.07;5.80;;;;;;;10.18;88.77;101284.87;124910;1099;104272;-78
2022/04/29 04:24:00;;;;;;;12.73;6.37;;;;;;;10.19;88.35;101286.66;124861;1102;102567;-77
2022/04/29 04:26:32;;;;;;;11.03;5.47;;;;;;;10.16;88.52;101287.42;125077;1102;111842;-77
2022/04/29 04:29:03;;;;;;;10.90;5.62;;;;;;;10.17;88.26;101293.55;125039;1103;104229;-77
2022/04/29 04:31:40;;;;;;;11.50;5.57;;;;;;;10.14;88.98;101293.40;124686;1102;104323;-78
2022/04/29 04:36:58;;;;;;;9.37;5.53;;;;;;;10.13;88.96;101294.21;125484;1099;103070;-76
2022/04/29 04:39:27;;;;;;;11.65;5.95;;;;;;;10.15;89.27;101301.34;124962;1099;104338;-77
2022/04/29 04:42:01;;;;;;;10.03;5.33;;;;;;;10.15;88.58;101303.08;125269;1099;103245;-77
2022/04/29 04:44:40;;;;;;;10.90;5.53;;;;;;;10.18;88.56;101298.88;125143;1102;102961;-77
2022/04/29 04:47:10;;;;;;;12.67;5.87;;;;;;;10.21;88.33;101311.25;125784;1102;108261;-77
2022/04/29 04:50:02;;;;;;;10.13;5.27;;;;;;;10.20;88.80;101315.58;125330;1102;103507;-77
2022/04/29 04:52:35;;;;;;;11.53;5.77;;;;;;;10.19;90.14;101318.13;125198;1099;104382;-77
2022/04/29 04:55:07;;;;;;;11.97;5.70;;;;;;;10.19;88.49;101315.50;125339;1099;104205;-77
2022/04/29 04:57:38;;;;;;;10.47;5.77;;;;;;;10.24;89.60;101316.66;125219;1102;118020;-77
2022/04/29 05:00:10;;;;;;;11.87;5.77;;;;;;;10.29;88.72;101317.77;125524;1099;103402;-77
2022/04/29 05:03:08;;;;;;;12.40;5.87;;;;;;;10.34;88.99;101313.68;125193;1102;104240;-77
2022/04/29 05:06:13;;;;;;;13.20;5.93;;;;;;;10.39;88.77;101306.96;124973;1099;104372;-77
2022/04/29 05:08:43;;;;;;;13.70;6.00;;;;;;;10.46;89.23;101308.16;125204;1102;102281;-77
2022/04/29 05:11:12;;;;;;;11.90;5.67;;;;;;;10.47;89.24;101309.96;125054;1102;104240;-78
2022/04/29 05:13:43;;;;;;;11.90;5.80;;;;;;;10.48;88.88;101313.47;125202;1102;104272;-78
2022/04/29 05:16:14;;;;;;;13.77;6.37;;;;;;;10.51;90.41;101309.27;125032;1102;104172;-77
2022/04/29 05:19:10;;;;;;;13.23;5.97;;;;;;;10.57;89.04;101308.67;125093;1099;102223;-77
2022/04/29 05:21:43;;;;;;;13.20;6.20;;;;;;;10.63;88.91;101311.59;125066;1102;104349;-77
2022/04/29 05:24:13;;;;;;;11.83;6.10;;;;;;;10.64;88.87;101313.38;125015;1102;102284;-77
2022/04/29 05:27:16;;;;;;;14.07;6.60;;;;;;;10.64;88.71;101313.38;125121;1099;104262;-78
2022/04/29 05:30:10;;;;;;;11.57;6.03;;;;;;;10.62;89.29;101309.79;125651;1099;102136;-78
2022/04/29 05:33:14;;;;;;;14.07;6.23;;;;;;;10.71;88.98;101315.48;124757;1099;104204;-78
2022/04/29 05:36:04;;;;;;;12.17;5.87;;;;;;;10.81;88.78;101318.55;124957;1098;104172;-78
2022/04/29 05:44:31;;;;;;;11.33;5.77;;;;;;;11.11;88.64;101327.88;124840;1099;104153;-78
2022/04/29 05:47:02;;;;;;;8.77;4.80;;;;;;;11.21;88.45;101331.83;124874;1099;104238;-78
2022/04/29 05:49:31;;;;;;;10.57;5.47;;;;;;;11.22;88.69;101331.01;124978;1099;104325;-79
2022/04/29 05:52:03;;;;;;;8.53;5.43;;;;;;;11.25;88.67;101330.23;125005;1099;103220;-79
2022/04/29 05:54:35;;;;;;;11.57;5.00;;;;;;;11.26;88.47;101322.42;124805;1099;104261;-78
2022/04/29 05:57:08;;;;;;;9.63;5.10;;;;;;;11.29;88.42;101326.93;124971;1099;102512;-78
2022/04/29 05:59:38;;;;;;;10.90;5.63;;;;;;;11.32;88.30;101327.07;124939;1099;104239;-77
2022/04/29 06:02:45;;;;;;;11.47;5.77;;;;;;;11.34;88.40;101335.91;124405;1102;104199;-78
2022/04/29 06:05:22;;;;;;;9.47;5.17;;;;;;;11.28;88.06;101336.55;124540;1099;103204;-77
2022/04/29 06:07:53;;;;;;;9.43;5.27;;;;;;;11.30;88.89;101331.36;125135;1099;102902;-77
2022/04/29 06:10:30;;;;;;;11.67;5.87;;;;;;;11.36;88.17;101329.02;125166;1099;102519;-77
2022/04/29 06:13:02;;;;;;;10.60;5.57;;;;;;;11.46;88.22;101331.22;124535;1099;104286;-79
2022/04/29 06:15:52;;;;;;;11.40;5.93;;;;;;;11.54;88.35;101335.94;124430;1100;102759;-79
2022/04/29 06:18:41;;;;;;;13.23;6.10;;;;;;;11.54;88.17;101330.67;124433;1099;104369;-80
2022/04/29 06:21:40;;;;;;;15.03;7.50;;;;;;;11.51;88.23;101329.72;124670;1103;102861;-78
2022/04/29 06:24:26;;;;;;;14.93;7.80;;;;;;;11.45;88.27;101334.70;124700;1102;103071;-76
2022/04/29 06:26:57;;;;;;;16.87;7.77;;;;;;;11.44;88.48;101337.25;124857;1099;102354;-77
2022/04/29 06:29:28;;;;;;;13.50;6.80;;;;;;;11.48;88.32;101331.29;124724;1099;104156;-78
2022/04/29 06:31:58;;;;;;;11.47;5.70;;;;;;;11.51;88.49;101340.23;124735;1099;102168;-78
2022/04/29 06:34:49;;;;;;;9.23;5.00;;;;;;;11.50;88.21;101342.79;125236;1099;103226;-78
2022/04/29 06:37:21;;;;;;;11.10;5.30;;;;;;;11.51;88.33;101347.20;124694;1099;103480;-78
2022/04/29 06:39:52;;;;;;;9.80;5.60;;;;;;;11.49;88.34;101347.12;124510;1102;104239;-77
2022/04/29 06:42:50;;;;;;;12.17;5.90;;;;;;;11.51;88.42;101350.75;125146;1099;104232;-77
2022/04/29 06:45:38;;;;;;;11.20;6.00;;;;;;;11.58;88.46;101340.52;124971;1098;104362;-78
2022/04/29 06:48:09;;;;;;;10.90;5.70;;;;;;;11.65;88.36;101342.56;124920;1099;104348;-77
2022/04/29 06:50:58;;;;;;;11.63;6.07;;;;;;;11.72;88.49;101343.73;124938;1099;104373;-76
2022/04/29 06:53:49;;;;;;;12.00;5.97;;;;;;;11.77;88.29;101343.11;125685;1098;104232;-77
2022/04/29 06:56:26;;;;;;;11.47;5.60;;;;;;;11.80;88.04;101343.25;125060;1099;104283;-78
2022/04/29 06:58:57;;;;;;;11.40;6.27;;;;;;;11.87;88.32;101345.33;124860;1099;105101;-78
2022/04/29 07:01:28;;;;;;;8.67;5.03;;;;;;;11.96;88.25;101347.47;125316;1098;102755;-78
2022/04/29 07:04:03;;;;;;;10.93;5.33;;;;;;;12.08;88.25;101349.75;125223;1099;104635;-79
2022/04/29 07:06:35;;;;;;;10.77;5.47;;;;;;;12.20;88.59;101358.17;125004;1099;104262;-79
2022/04/29 07:09:05;;;;;;;9.57;4.93;;;;;;;12.21;88.28;101356.43;125141;1099;104182;-78
2022/04/29 07:12:01;;;;;;;7.70;4.80;;;;;;;12.23;88.14;101357.38;124805;1099;104230;-80
2022/04/29 07:14:37;;;;;;;11.20;5.37;;;;;;;12.25;88.19;101360.08;125039;1099;104156;-78
2022/04/29 07:17:15;;;;;;;14.93;5.83;;;;;;;12.25;88.00;101361.00;124605;1099;104182;-78
2022/04/29 07:19:52;;;;;;;10.00;5.40;;;;;;;12.20;88.11;101357.25;124874;1099;104178;-79
2022/04/29 07:22:23;;;;;;;10.75;5.60;;;;;;;12.19;88.35;101364.25;124993;1099;104303;-79
2022/04/29 07:24:55;;;;;;;11.37;5.03;;;;;;;12.21;88.11;101373.10;124484;1099;104822;-79
2022/04/29 07:27:29;;;;;;;11.13;5.73;;;;;;;12.25;88.17;101370.60;124608;1099;104300;-79
2022/04/29 07:30:04;;;;;;;10.65;4.70;;;;;;;12.33;88.13;101372.73;124952;1099;104281;-80
2022/04/29 07:32:54;;;;;;;7.03;4.55;;;;;;;12.30;87.92;101374.35;125009;1099;102272;-78
2022/04/29 07:41:48;;;;;;;12.83;6.23;;;;;;;12.41;87.78;101380.96;125883;1099;104169;-78
2022/04/29 07:44:21;;;;;;;12.23;5.63;;;;;;;12.45;87.83;101377.64;124626;1099;104165;-78
2022/04/29 07:46:57;;;;;;;12.47;5.63;;;;;;;12.44;88.22;101378.46;124889;1099;104356;-79
2022/04/29 07:49:33;;;;;;;9.43;5.10;;;;;;;12.43;87.81;101384.55;124960;1099;102764;-78
2022/04/29 07:52:13;;;;;;;9.20;4.97;;;;;;;12.38;88.13;101379.09;124582;1099;102736;-78
2022/04/29 07:55:17;;;;;;;9.75;5.30;;;;;;;12.37;88.40;101381.66;125726;1099;104345;-78
2022/04/29 07:57:49;;;;;;;10.60;4.63;;;;;;;12.36;88.00;101383.40;125038;1099;104143;-79
2022/04/29 08:00:19;;;;;;;6.53;4.47;;;;;;;12.33;87.76;101377.12;125304;1098;102300;-79
2022/04/29 08:03:01;;;;;;;7.87;4.27;;;;;;;12.31;87.89;101378.76;125140;1102;101841;-79
2022/04/29 08:05:58;;;;;;;8.20;3.90;;;;;;;12.30;87.90;101380.50;125139;1099;102323;-78
2022/04/29 08:08:33;;;;;;;7.30;3.90;;;;;;;12.28;87.73;101395.34;125160;1099;104273;-79
2022/04/29 08:11:11;;;;;;;7.37;4.23;;;;;;;12.27;87.72;101395.27;125762;1099;104226;-80
2022/04/29 08:14:07;;;;;;;7.53;4.00;;;;;;;12.25;87.74;101396.92;124969;1099;102385;-79
2022/04/29 08:17:14;;;;;;;9.07;4.27;;;;;;;12.26;87.85;101396.09;125025;1099;102156;-80
2022/04/29 08:19:58;;;;;;;10.43;4.60;;;;;;;12.32;88.10;101393.73;125269;1099;102519;-81
2022/04/29 08:22:40;;;;;;;8.13;4.30;;;;;;;12.39;87.87;101395.80;124695;1099;104230;-80
2022/04/29 08:25:22;;;;;;;10.50;4.27;;;;;;;12.36;87.38;101393.04;124498;1099;104342;-80
2022/04/29 08:27:59;;;;;;;8.80;4.30;;;;;;;12.38;87.61;101392.25;124381;1099;104342;-80
2022/04/29 08:30:35;;;;;;;11.33;4.40;;;;;;;12.45;87.55;101398.70;125127;1100;102370;-80
2022/04/29 08:33:21;;;;;;;10.30;5.27;;;;;;;12.55;87.48;101399.97;125112;1102;117748;-80
2022/04/29 08:35:55;;;;;;;9.20;4.90;;;;;;;12.62;87.51;101406.38;124485;1102;104342;-80
2022/04/29 08:38:28;;;;;;;12.00;5.10;;;;;;;12.70;87.17;101399.69;124545;1102;104366;-80
2022/04/29 08:43:57;;;;;;;7.70;4.30;;;;;;;12.80;87.21;101393.09;125275;1100;101997;-81
2022/04/29 08:46:48;;;;;;;8.90;4.13;;;;;;;12.75;86.74;101392.91;124529;1099;102607;-80
2022/04/29 08:49:50;;;;;;;10.57;4.73;;;;;;;12.74;86.62;101391.09;124444;1099;102909;-80
2022/04/29 08:52:22;;;;;;;11.40;4.60;;;;;;;12.81;87.21;101392.23;124457;1099;104226;-79
2022/04/29 09:00:31;;;;;;;8.83;3.97;;;;;;;13.09;86.77;101396.91;125016;1099;102419;-81
2022/04/29 09:03:18;;;;;;;5.03;3.83;;;;;;;13.10;86.79;101383.80;124936;1099;104240;-79
2022/04/29 09:05:49;;;;;;;6.03;3.80;;;;;;;13.19;86.46;101398.16;124962;1098;104172;-78
2022/04/29 09:08:22;;;;;;;9.70;3.23;;;;;;;13.18;85.85;101391.97;125041;1099;104160;-78
2022/04/29 09:10:53;;;;;;;6.90;3.70;;;;;;;13.10;84.53;101396.97;124974;1099;104211;-78
2022/04/29 09:13:26;;;;;;;5.23;3.30;;;;;;;13.08;83.83;101387.19;124938;1099;103014;-78
2022/04/29 09:16:06;;;;;;;5.17;3.40;;;;;;;13.17;85.02;101379.66;124979;1099;104357;-78
2022/04/29 09:18:40;;;;;;;6.83;3.80;;;;;;;13.32;85.35;101376.70;124993;1099;104332;-78
2022/04/29 09:21:14;;;;;;;4.53;3.55;;;;;;;13.42;85.20;101378.00;125047;1099;104363;-78
2022/04/29 09:23:54;;;;;;;5.85;3.60;;;;;;;13.46;85.44;101380.81;125073;1099;104296;-78
2022/04/29 09:26:46;;;;;;;5.30;2.90;;;;;;;13.36;84.18;101383.04;125138;1099;103109;-78
2022/04/29 09:29:48;;;;;;;3.90;3.03;;;;;;;13.43;84.65;101387.69;125223;1099;102905;-78
2022/04/29 09:40:05;;;;;;;4.27;2.90;;;;;;;13.79;84.02;101369.72;126046;1099;103203;-78
2022/04/29 09:43:10;;;;;;;11.20;3.80;;;;;;;14.00;83.04;101364.30;126204;1099;104295;-78
2022/04/29 09:45:43;;;;;;;5.93;3.13;;;;;;;14.20;83.29;101367.64;125650;1101;102546;-78
2022/04/29 09:48:16;;;;;;;5.13;3.00;;;;;;;14.25;80.68;101370.44;125789;1097;102382;-78
2022/04/29 09:51:24;;;;;;;6.37;3.23;;;;;;;14.44;82.38;101350.83;125911;1099;103800;-80
2022/04/29 09:58:01;;;;;;;8.53;3.40;;;;;;;14.81;82.44;101357.36;126104;1102;102168;-79
2022/04/29 10:00:44;;;;;;;5.87;2.90;;;;;;;14.98;83.15;101370.22;126094;1102;101945;-79
2022/04/29 10:03:23;;;;;;;6.10;3.30;;;;;;;15.10;82.88;101360.04;126103;1105;102463;-80
2022/04/29 10:05:57;;;;;;;5.63;3.00;;;;;;;15.09;81.30;101359.12;126095;1102;102389;-79
2022/04/29 10:08:28;;;;;;;;;;;;;;;15.05;81.03;101362.54;126063;1105;102133;-79
2022/04/29 10:11:23;;;;;;;4.40;2.80;;;;;;;15.01;79.59;101365.92;125965;1105;102154;-80
2022/04/29 10:14:18;;;;;;;4.57;3.07;;;;;;;15.07;81.28;101360.83;125782;1105;104233;-81
2022/04/29 10:21:15;;;;;;;5.40;2.77;;;;;;;15.19;81.07;101367.33;125313;1105;104242;-78
2022/04/29 10:21:18;;;;;;;3.70;2.93;;;;;;;15.12;80.49;101362.73;124790;1109;119713;-78
2022/04/29 10:27:17;;;;;;;5.10;3.10;;;;;;;15.30;80.29;101357.09;125565;1109;104175;-79
2022/04/29 10:29:56;;;;;;;5.00;2.73;;;;;;;15.30;79.92;101355.33;124942;1109;102435;-78
2022/04/29 10:32:30;;;;;;;4.13;2.63;;;;;;;15.24;77.10;101357.82;124492;1109;102681;-78
2022/04/29 10:34:59;;;;;;;7.00;3.00;;;;;;;15.12;78.30;101358.33;124940;1109;102934;-78
2022/04/29 10:37:40;;;;;;;5.60;2.90;;;;;;;15.13;79.32;101353.93;124915;1109;102359;-77
2022/04/29 10:40:22;;;;;;;5.97;3.23;;;;;;;15.24;79.25;101357.82;124757;1109;104137;-79
2022/04/29 10:43:21;;;;;;;4.67;2.57;;;;;;;15.22;77.41;101359.50;125081;1108;109212;-77
2022/04/29 10:46:28;;;;;;;4.03;2.80;;;;;;;15.35;78.32;101359.03;124577;1109;102415;-77
2022/04/29 10:49:39;;;;;;;4.20;2.80;;;;;;;15.25;78.38;101362.23;124613;1109;102656;-79
2022/04/29 10:52:34;;;;;;;5.00;2.60;;;;;;;15.12;77.04;101362.73;125340;1109;102576;-80
2022/04/29 10:55:29;;;;;;;4.30;2.90;;;;;;;15.12;77.65;101357.45;125199;1109;103061;-79
2022/04/29 10:58:46;;;;;;;4.70;2.50;;;;;;;15.21;78.60;101353.33;125557;1105;102246;-81
2022/04/29 11:01:50;;;;;;;5.30;2.60;;;;;;;15.12;76.46;101354.80;125389;1105;101943;-79
2022/04/29 11:04:59;;;;;;;4.30;2.70;;;;;;;14.97;77.98;101361.38;125267;1106;104220;-76
2022/04/29 11:10:55;;;;;;;3.20;2.53;;;;;;;14.74;77.25;101355.39;125644;1106;104114;-78
2022/04/29 11:13:44;;;;;;;3.97;2.70;;;;;;;14.59;76.40;101357.49;125232;1105;104449;-79
2022/04/29 11:16:52;;;;;;;3.70;2.70;;;;;;;14.54;77.37;101357.34;125503;1106;102240;-77
2022/04/29 11:19:53;;;;;;;4.50;2.60;;;;;;;14.41;77.65;101360.41;125501;1105;102240;-78
2022/04/29 11:25:41;;;;;;;;;;;;;;;;;;;;;
2022/04/29 11:28:39;;;;;;;4.63;2.40;;;;;;;13.96;76.42;101362.41;125456;1105;107847;-76
2022/04/29 11:31:48;;;;;;;4.00;2.60;;;;;;;13.84;76.92;101360.22;125676;1109;101830;-78
2022/04/29 11:35:04;;;;;;;3.10;2.40;;;;;;;13.78;76.74;101351.20;125705;1105;103418;-80
2022/04/29 11:38:04;;;;;;;;;;;;;;;13.68;76.14;101351.69;125464;1106;102829;-78
2022/04/29 11:40:41;;;;;;;5.63;3.07;;;;;;;13.60;76.14;101349.69;124751;1105;102671;-76
2022/04/29 11:43:24;;;;;;;3.60;2.50;;;;;;;13.56;76.96;101349.52;124447;1105;104226;-76
2022/04/29 11:46:22;;;;;;;4.70;2.50;;;;;;;13.53;76.49;101345.02;124283;1105;103074;-77
2022/04/29 11:49:03;;;;;;;4.27;2.67;;;;;;;13.52;76.67;101343.21;124078;1106;117839;-76
2022/04/29 11:51:32;;;;;;;3.33;2.30;;;;;;;13.54;76.88;101341.55;124644;1105;104227;-76
2022/04/29 11:54:08;;;;;;;5.17;2.60;;;;;;;13.52;76.03;101340.58;125097;1105;101977;-77
2022/04/29 11:56:47;;;;;;;3.67;2.80;;;;;;;13.54;76.51;101328.37;124522;1106;102209;-77
2022/04/29 11:59:16;;;;;;;4.67;3.03;;;;;;;13.58;77.22;101329.37;124672;1102;104239;-78
2022/04/29 12:01:46;;;;;;;5.27;2.80;;;;;;;13.65;76.51;101324.38;125160;1102;102007;-78
2022/04/29 12:04:16;;;;;;;5.93;3.17;;;;;;;13.69;76.17;101328.02;124898;1102;102275;-78
2022/04/29 12:07:07;;;;;;;4.03;2.70;;;;;;;13.75;76.90;101317.68;124498;1101;104182;-77
2022/04/29 12:09:40;;;;;;;4.80;2.60;;;;;;;13.87;76.93;101308.41;125036;1102;108858;-78
2022/04/29 12:12:24;;;;;;;3.13;2.37;;;;;;;13.96;76.11;101301.73;125889;1101;103250;-78
2022/04/29 12:14:58;;;;;;;3.90;2.63;;;;;;;14.13;76.08;101306.67;125047;1102;102326;-78
2022/04/29 12:17:41;;;;;;;4.37;2.80;;;;;;;14.26;75.38;101302.69;125672;1102;104236;-77
2022/04/29 12:20:21;;;;;;;5.43;3.00;;;;;;;14.48;76.26;101306.96;125193;1101;102797;-77
2022/04/29 12:22:52;;;;;;;3.33;2.37;;;;;;;14.59;74.70;101299.39;125466;1102;102516;-77
2022/04/29 12:25:38;;;;;;;3.90;2.23;;;;;;;14.69;74.64;101297.13;125268;1102;102628;-78
2022/04/29 12:28:15;;;;;;;3.80;2.35;;;;;;;14.87;75.42;101296.78;125215;1102;103621;-78
2022/04/29 12:36:58;;;;;;;2.97;2.37;;;;;;;15.38;74.82;101294.73;125011;1102;103464;-78
2022/04/29 12:39:40;;;;;;;2.43;2.23;;;;;;;15.52;73.62;101296.05;124606;1102;102110;-78
2022/04/29 12:42:14;;;;;;;3.17;2.27;;;;;;;15.55;73.04;101289.92;125059;1102;101903;-78
2022/04/29 12:45:11;;;;;;;3.30;2.27;;;;;;;15.58;72.92;101288.29;124268;1105;102255;-79
2022/04/29 12:48:05;;;;;;;3.63;2.30;;;;;;;15.68;73.42;101292.08;125050;1102;104836;-78
2022/04/29 12:50:44;;;;;;;6.47;2.30;;;;;;;15.71;72.87;101292.16;124361;1102;109193;-79